createdAt,value
2022-12-18T00:00:58.779Z,0.30
2022-12-18T00:04:40.480Z,0.30
2022-12-18T00:08:22.227Z,0.30
2022-12-18T00:16:06.628Z,0.30
2022-12-18T00:19:48.375Z,0.30
2022-12-18T00:23:30.905Z,0.30
2022-12-18T00:27:12.728Z,0.30
2022-12-18T00:31:08.822Z,0.30
2022-12-18T00:34:50.576Z,0.30
2022-12-18T00:38:32.513Z,0.40
2022-12-18T00:42:32.821Z,0.40
2022-12-18T00:46:14.607Z,0.40
2022-12-18T00:49:56.350Z,0.40
2022-12-18T00:53:38.410Z,0.40
2022-12-18T00:57:20.520Z,0.40
2022-12-18T01:01:02.282Z,0.40
2022-12-18T01:04:44.012Z,0.50
2022-12-18T01:08:25.972Z,0.50
2022-12-18T01:12:07.740Z,0.50
2022-12-18T01:15:50.800Z,0.60
2022-12-18T01:19:32.937Z,0.60
2022-12-18T01:23:14.636Z,0.60
2022-12-18T01:26:58.144Z,0.70
2022-12-18T01:30:39.748Z,0.60
2022-12-18T01:34:21.474Z,0.70
2022-12-18T01:38:03.211Z,0.70
2022-12-18T01:42:03.963Z,0.70
2022-12-18T01:45:45.717Z,0.70
2022-12-18T01:49:27.541Z,0.70
2022-12-18T01:53:22.192Z,0.70
2022-12-18T01:57:04.205Z,0.70
2022-12-18T02:00:46.051Z,0.70
2022-12-18T02:04:29.031Z,0.80
2022-12-18T02:08:19.135Z,0.80
2022-12-18T02:12:14.410Z,0.80
2022-12-18T02:16:11.912Z,0.80
2022-12-18T02:19:59.691Z,0.80
2022-12-18T02:24:02.385Z,0.80
2022-12-18T02:27:47.916Z,0.80
2022-12-18T02:31:35.488Z,0.80
2022-12-18T02:35:23.164Z,0.80
2022-12-18T02:39:07.224Z,0.80
2022-12-18T02:42:50.831Z,0.90
2022-12-18T02:46:37.538Z,0.90
2022-12-18T02:50:38.943Z,0.90
2022-12-18T02:54:33.963Z,1.00
2022-12-18T02:58:41.889Z,1.00
2022-12-18T03:02:36.356Z,1.00
2022-12-18T03:06:49.241Z,1.00
2022-12-18T03:10:33.221Z,1.00
2022-12-18T03:14:18.430Z,1.00
2022-12-18T03:18:09.917Z,1.00
2022-12-18T03:21:56.299Z,1.10
2022-12-18T03:25:43.037Z,1.10
2022-12-18T03:29:43.578Z,1.20
2022-12-18T03:33:56.947Z,1.20
2022-12-18T03:37:39.287Z,1.30
2022-12-18T03:41:34.604Z,1.30
2022-12-18T03:45:28.282Z,1.40
2022-12-18T03:49:12.477Z,1.40
2022-12-18T03:53:06.296Z,1.40
2022-12-18T03:56:59.185Z,1.50
2022-12-18T04:00:42.032Z,1.40
2022-12-18T04:04:26.450Z,1.50
2022-12-18T04:08:08.332Z,1.50
2022-12-18T04:11:50.380Z,1.50
2022-12-18T04:15:35.666Z,1.60
2022-12-18T04:19:17.879Z,1.60
2022-12-18T04:22:59.607Z,1.60
2022-12-18T04:26:41.316Z,1.70
2022-12-18T04:30:23.015Z,1.70
2022-12-18T04:34:05.003Z,1.70
2022-12-18T04:37:46.708Z,1.80
2022-12-18T04:41:28.479Z,1.80
2022-12-18T04:45:10.660Z,1.90
2022-12-18T04:48:52.399Z,1.90
2022-12-18T04:52:34.072Z,1.90
2022-12-18T04:56:17.054Z,2.00
2022-12-18T04:59:58.896Z,2.00
2022-12-18T05:03:41.191Z,2.10
2022-12-18T05:07:23.165Z,2.10
2022-12-18T05:11:11.415Z,2.10
2022-12-18T05:14:53.495Z,2.10
2022-12-18T05:18:35.546Z,2.20
2022-12-18T05:22:17.255Z,2.20
2022-12-18T05:26:01.710Z,2.20
2022-12-18T05:29:43.385Z,2.30
2022-12-18T05:33:27.248Z,2.30
2022-12-18T05:37:08.911Z,2.30
2022-12-18T05:40:51.744Z,2.30
2022-12-18T05:44:33.442Z,2.40
2022-12-18T05:48:15.684Z,2.40
2022-12-18T05:51:57.363Z,2.40
2022-12-18T05:55:40.760Z,2.50
2022-12-18T05:59:22.476Z,2.50
2022-12-18T06:03:04.292Z,2.60
2022-12-18T06:06:46.134Z,2.60
2022-12-18T06:10:27.816Z,2.60
2022-12-18T06:14:10.685Z,2.70
2022-12-18T06:17:52.501Z,2.70
2022-12-18T06:21:34.747Z,2.70
2022-12-18T06:25:17.004Z,2.80
2022-12-18T06:28:59.055Z,2.80
2022-12-18T06:32:40.815Z,2.90
2022-12-18T06:36:22.644Z,2.90
2022-12-18T06:40:04.847Z,2.90
2022-12-18T06:43:46.760Z,2.90
2022-12-18T06:47:28.964Z,2.90
2022-12-18T06:51:10.710Z,3.00
2022-12-18T06:54:52.445Z,3.00
2022-12-18T06:58:34.577Z,3.00
2022-12-18T07:02:16.368Z,3.10
2022-12-18T07:05:58.174Z,3.10
2022-12-18T07:09:39.877Z,3.10
2022-12-18T07:13:21.664Z,3.10
2022-12-18T07:17:03.411Z,3.00
2022-12-18T07:20:45.159Z,3.10
2022-12-18T07:24:27.828Z,3.00
2022-12-18T07:28:12.858Z,3.00
2022-12-18T07:31:58.917Z,3.00
2022-12-18T07:35:40.682Z,3.10
2022-12-18T07:39:22.404Z,3.10
2022-12-18T07:43:04.191Z,3.10
2022-12-18T07:46:45.944Z,3.10
2022-12-18T07:50:27.830Z,3.10
2022-12-18T07:54:09.525Z,3.10
2022-12-18T07:57:54.136Z,3.10
2022-12-18T08:01:38.436Z,3.10
2022-12-18T08:05:21.651Z,3.10
2022-12-18T08:09:03.743Z,3.10
2022-12-18T08:12:45.438Z,3.10
2022-12-18T08:16:28.250Z,3.20
2022-12-18T08:20:10.582Z,3.20
2022-12-18T08:23:53.707Z,3.20
2022-12-18T08:27:35.507Z,3.20
2022-12-18T08:31:17.373Z,3.20
2022-12-18T08:34:59.161Z,3.20
2022-12-18T08:38:40.984Z,3.20
2022-12-18T08:42:42.513Z,3.20
2022-12-18T08:46:27.021Z,3.20
2022-12-18T08:50:12.113Z,3.20
2022-12-18T08:53:53.811Z,3.20
2022-12-18T08:57:35.529Z,3.20
2022-12-18T09:01:17.316Z,3.20
2022-12-18T09:04:59.071Z,3.20
2022-12-18T09:08:41.250Z,3.20
2022-12-18T09:12:23.299Z,3.20
2022-12-18T09:16:05.312Z,3.20
2022-12-18T09:19:47.262Z,3.20
2022-12-18T09:23:29.041Z,3.20
2022-12-18T09:27:10.757Z,3.20
2022-12-18T09:30:52.480Z,3.20
2022-12-18T09:34:34.300Z,3.30
2022-12-18T09:38:18.821Z,3.30
2022-12-18T09:42:00.976Z,3.30
2022-12-18T09:45:48.814Z,3.30
2022-12-18T09:49:32.758Z,3.40
2022-12-18T09:53:22.380Z,3.40
2022-12-18T09:57:04.980Z,3.40
2022-12-18T10:00:46.872Z,3.40
2022-12-18T10:04:31.551Z,3.40
2022-12-18T10:08:19.677Z,3.40
2022-12-18T10:12:07.160Z,3.50
2022-12-18T10:16:13.811Z,3.50
2022-12-18T10:20:29.943Z,3.50
2022-12-18T10:24:46.889Z,3.60
2022-12-18T10:28:32.099Z,3.60
2022-12-18T10:32:20.284Z,3.70
2022-12-18T10:36:02.007Z,3.70
2022-12-18T10:39:43.904Z,3.70
2022-12-18T10:43:29.135Z,3.70
2022-12-18T10:47:16.136Z,3.80
2022-12-18T10:51:13.851Z,3.80
2022-12-18T10:55:03.669Z,3.80
2022-12-18T10:59:00.321Z,3.90
2022-12-18T11:02:42.211Z,3.90
2022-12-18T11:06:25.876Z,4.00
2022-12-18T11:10:16.476Z,4.00
2022-12-18T11:14:16.189Z,4.00
2022-12-18T11:17:58.043Z,4.10
2022-12-18T11:21:43.812Z,4.10
2022-12-18T11:25:34.665Z,4.20
2022-12-18T11:29:23.610Z,4.20
2022-12-18T11:33:11.171Z,4.20
2022-12-18T11:36:54.283Z,4.30
2022-12-18T11:40:42.947Z,4.30
2022-12-18T11:44:30.670Z,4.30
2022-12-18T11:48:22.521Z,4.30
2022-12-18T11:52:07.133Z,4.40
2022-12-18T11:56:11.350Z,4.50
2022-12-18T11:59:56.032Z,4.50
2022-12-18T12:03:49.641Z,4.50
2022-12-18T12:07:48.185Z,4.60
2022-12-18T12:11:55.481Z,4.60
2022-12-18T12:15:55.361Z,4.70
2022-12-18T12:19:45.059Z,4.70
2022-12-18T12:23:46.965Z,4.80
2022-12-18T12:28:26.911Z,4.80
2022-12-18T12:32:39.818Z,4.90
2022-12-18T12:37:02.003Z,5.00
2022-12-18T12:41:06.359Z,5.10
2022-12-18T12:44:56.533Z,5.10
2022-12-18T12:48:47.844Z,5.20
2022-12-18T12:52:42.004Z,5.20
2022-12-18T12:56:28.736Z,5.30
2022-12-18T13:00:13.867Z,5.30
2022-12-18T13:03:55.840Z,5.30
2022-12-18T13:07:46.657Z,5.40
2022-12-18T13:12:06.171Z,5.40
2022-12-18T13:16:09.037Z,5.50
2022-12-18T13:20:11.010Z,5.60
2022-12-18T13:23:52.865Z,5.70
2022-12-18T13:27:57.739Z,5.70
2022-12-18T13:31:42.602Z,5.80
2022-12-18T13:35:25.131Z,5.90
2022-12-18T13:39:23.866Z,6.00
2022-12-18T13:43:22.697Z,6.20
2022-12-18T13:47:06.585Z,6.30
2022-12-18T13:51:17.261Z,6.40
2022-12-18T13:55:02.339Z,6.50
2022-12-18T13:58:44.378Z,6.70
2022-12-18T14:02:32.784Z,6.80
2022-12-18T14:06:14.725Z,6.90
2022-12-18T14:10:18.747Z,7.00
2022-12-18T14:14:01.772Z,7.00
2022-12-18T14:17:43.977Z,7.10
2022-12-18T14:21:30.646Z,7.10
2022-12-18T14:25:25.885Z,7.20
2022-12-18T14:29:35.694Z,7.30
2022-12-18T14:33:23.472Z,7.30
2022-12-18T14:37:06.014Z,7.40
2022-12-18T14:40:47.989Z,7.50
2022-12-18T14:44:39.151Z,7.50
2022-12-18T14:48:41.234Z,7.60
2022-12-18T14:52:30.166Z,7.70
2022-12-18T14:56:17.952Z,7.70
2022-12-18T15:00:07.895Z,7.80
2022-12-18T15:03:50.666Z,7.80
2022-12-18T15:07:49.648Z,7.90
2022-12-18T15:11:47.131Z,7.90
2022-12-18T15:15:37.726Z,8.00
2022-12-18T15:19:21.413Z,8.00
2022-12-18T15:23:03.214Z,8.00
2022-12-18T15:26:45.021Z,8.00
2022-12-18T15:30:27.491Z,8.00
2022-12-18T15:34:22.376Z,8.10
2022-12-18T15:38:04.128Z,8.10
2022-12-18T15:42:06.035Z,8.20
2022-12-18T15:45:47.758Z,8.20
2022-12-18T15:49:29.576Z,8.20
2022-12-18T15:53:11.349Z,8.30
2022-12-18T15:57:11.543Z,8.30
2022-12-18T16:00:53.597Z,8.30
2022-12-18T16:04:35.341Z,8.30
2022-12-18T16:08:17.088Z,8.30
2022-12-18T16:12:01.749Z,8.40
2022-12-18T16:15:43.518Z,8.40
2022-12-18T16:19:25.984Z,8.40
2022-12-18T16:23:08.214Z,8.50
2022-12-18T16:26:52.399Z,8.50
2022-12-18T16:30:38.264Z,8.50
2022-12-18T16:34:29.680Z,8.50
2022-12-18T16:38:11.606Z,8.60
2022-12-18T16:41:53.829Z,8.60
2022-12-18T16:45:36.004Z,8.60
2022-12-18T16:49:19.425Z,8.60
2022-12-18T16:53:01.152Z,8.60
2022-12-18T16:56:43.094Z,8.60
2022-12-18T17:00:24.785Z,8.70
2022-12-18T17:04:06.793Z,8.70
2022-12-18T17:07:48.546Z,8.70
2022-12-18T17:11:33.132Z,8.70
2022-12-18T17:15:14.918Z,8.70
2022-12-18T17:18:56.617Z,8.80
2022-12-18T17:22:38.342Z,8.80
2022-12-18T17:26:20.040Z,8.80
2022-12-18T17:30:02.292Z,8.80
2022-12-18T17:33:44.706Z,8.80
2022-12-18T17:37:26.573Z,8.90
2022-12-18T17:41:10.019Z,8.90
2022-12-18T17:44:52.244Z,9.00
2022-12-18T17:48:34.233Z,9.00
2022-12-18T17:52:15.989Z,9.00
2022-12-18T17:56:00.927Z,9.10
2022-12-18T17:59:42.868Z,9.10
2022-12-18T18:03:25.218Z,9.10
2022-12-18T18:07:07.098Z,9.10
2022-12-18T18:10:49.270Z,9.10
2022-12-18T18:14:31.121Z,9.20
2022-12-18T18:18:12.813Z,9.20
2022-12-18T18:21:56.741Z,9.20
2022-12-18T18:25:38.857Z,9.30
2022-12-18T18:29:25.391Z,9.30
2022-12-18T18:33:12.087Z,9.40
2022-12-18T18:36:56.639Z,9.40
2022-12-18T18:40:38.936Z,9.40
2022-12-18T18:44:21.613Z,9.50
2022-12-18T18:48:08.036Z,9.50
2022-12-18T18:51:50.694Z,9.50
2022-12-18T18:55:33.568Z,9.50
2022-12-18T18:59:15.658Z,9.50
2022-12-18T19:03:00.663Z,9.60
2022-12-18T19:06:43.952Z,9.60
2022-12-18T19:10:26.575Z,9.70
2022-12-18T19:14:10.396Z,9.70
2022-12-18T19:17:52.807Z,9.70
2022-12-18T19:21:35.427Z,9.80
2022-12-18T19:25:18.259Z,9.80
2022-12-18T19:29:09.456Z,9.80
2022-12-18T19:32:51.164Z,9.80
2022-12-18T19:36:34.602Z,9.90
2022-12-18T19:40:16.467Z,9.90
2022-12-18T19:43:58.407Z,10.00
2022-12-18T19:47:40.202Z,10.10
2022-12-18T19:51:23.587Z,10.10
2022-12-18T19:55:05.577Z,10.10
2022-12-18T19:58:47.638Z,10.20
2022-12-18T20:02:31.193Z,10.20
2022-12-18T20:06:35.121Z,10.20
2022-12-18T20:10:17.079Z,10.20
2022-12-18T20:14:00.526Z,10.20
2022-12-18T20:17:42.259Z,10.30
2022-12-18T20:21:25.194Z,10.30
2022-12-18T20:25:07.296Z,10.30
2022-12-18T20:28:49.304Z,10.40
2022-12-18T20:32:36.773Z,10.40
2022-12-18T20:36:22.418Z,10.50
2022-12-18T20:40:05.845Z,10.50
2022-12-18T20:43:48.457Z,10.50
2022-12-18T20:47:30.180Z,10.60
2022-12-18T20:51:15.116Z,10.60
2022-12-18T20:54:56.856Z,10.60
2022-12-18T20:58:40.244Z,10.70
2022-12-18T21:02:22.517Z,10.70
2022-12-18T21:06:07.929Z,10.70
2022-12-18T21:09:50.822Z,10.70
2022-12-18T21:13:33.523Z,10.80
2022-12-18T21:17:17.940Z,10.80
2022-12-18T21:20:59.705Z,10.80
2022-12-18T21:24:42.944Z,10.90
2022-12-18T21:28:24.666Z,10.90
2022-12-18T21:32:09.464Z,10.90
2022-12-18T21:35:57.151Z,11.00
2022-12-18T21:39:40.925Z,11.00
2022-12-18T21:43:41.143Z,11.00
2022-12-18T21:47:24.325Z,11.10
2022-12-18T21:51:06.221Z,11.10
2022-12-18T21:54:49.828Z,11.20
2022-12-18T21:58:32.329Z,11.20
2022-12-18T22:02:22.574Z,11.20
2022-12-18T22:06:09.440Z,11.30
2022-12-18T22:09:51.488Z,11.30
2022-12-18T22:13:33.461Z,11.30
2022-12-18T22:17:15.746Z,11.40
2022-12-18T22:21:05.221Z,11.40
2022-12-18T22:24:47.041Z,11.40
2022-12-18T22:28:47.186Z,11.40
2022-12-18T22:32:31.249Z,11.50
2022-12-18T22:36:19.567Z,11.50
2022-12-18T22:40:05.958Z,11.50
2022-12-18T22:43:49.272Z,11.50
2022-12-18T22:47:31.420Z,11.50
2022-12-18T22:51:17.843Z,11.60
2022-12-18T22:55:02.731Z,11.50
2022-12-18T22:58:47.156Z,11.60
2022-12-18T23:02:29.045Z,11.60
2022-12-18T23:06:13.362Z,11.60
2022-12-18T23:10:00.857Z,11.60
2022-12-18T23:13:44.505Z,11.70
2022-12-18T23:17:26.491Z,11.70
2022-12-18T23:21:11.876Z,11.70
2022-12-18T23:24:54.507Z,11.70
2022-12-18T23:28:37.382Z,11.70
2022-12-18T23:32:19.085Z,11.80
2022-12-18T23:36:02.545Z,11.80
2022-12-18T23:39:44.258Z,11.80
2022-12-18T23:43:26.813Z,11.80
2022-12-18T23:47:08.481Z,11.80
2022-12-18T23:50:50.179Z,11.80
2022-12-18T23:54:32.889Z,11.80
2022-12-18T23:58:20.828Z,11.90
